sensor_id;sensor_type;location;lat;lon;timestamp;temperature;humidity
16076;DHT22;8142;48.242;11.644;2023-02-01T00:01:55;4.30;99.90
16076;DHT22;8142;48.242;11.644;2023-02-01T00:04:21;4.30;99.90
16076;DHT22;8142;48.242;11.644;2023-02-01T00:06:47;4.30;99.90
16076;DHT22;8142;48.242;11.644;2023-02-01T00:09:13;4.40;99.90
16076;DHT22;8142;48.242;11.644;2023-02-01T00:11:40;4.40;99.90
16076;DHT22;8142;48.242;11.644;2023-02-01T00:14:06;4.40;99.90
16076;DHT22;8142;48.242;11.644;2023-02-01T00:16:32;4.40;99.90
16076;DHT22;8142;48.242;11.644;2023-02-01T00:19:07;4.40;99.90
16076;DHT22;8142;48.242;11.644;2023-02-01T00:21:33;4.50;99.90
16076;DHT22;8142;48.242;11.644;2023-02-01T00:23:59;4.50;99.90
16076;DHT22;8142;48.242;11.644;2023-02-01T00:26:33;4.50;99.90
16076;DHT22;8142;48.242;11.644;2023-02-01T00:29:01;4.50;99.90
16076;DHT22;8142;48.242;11.644;2023-02-01T00:31:27;4.50;99.90
16076;DHT22;8142;48.242;11.644;2023-02-01T00:33:53;4.50;99.90
16076;DHT22;8142;48.242;11.644;2023-02-01T00:36:18;4.50;99.90
16076;DHT22;8142;48.242;11.644;2023-02-01T00:38:44;4.50;99.90
16076;DHT22;8142;48.242;11.644;2023-02-01T00:41:17;4.50;99.90
16076;DHT22;8142;48.242;11.644;2023-02-01T00:43:44;4.60;99.90
16076;DHT22;8142;48.242;11.644;2023-02-01T00:46:11;4.60;99.90
16076;DHT22;8142;48.242;11.644;2023-02-01T00:48:38;4.50;99.90
16076;DHT22;8142;48.242;11.644;2023-02-01T00:51:10;4.50;99.90
16076;DHT22;8142;48.242;11.644;2023-02-01T00:53:37;4.50;99.90
16076;DHT22;8142;48.242;11.644;2023-02-01T00:56:03;4.50;99.90
16076;DHT22;8142;48.242;11.644;2023-02-01T00:58:29;4.50;99.90
16076;DHT22;8142;48.242;11.644;2023-02-01T01:03:43;4.40;99.90
16076;DHT22;8142;48.242;11.644;2023-02-01T01:06:12;4.40;99.90
16076;DHT22;8142;48.242;11.644;2023-02-01T01:08:39;4.30;99.90
16076;DHT22;8142;48.242;11.644;2023-02-01T01:11:11;4.30;99.90
16076;DHT22;8142;48.242;11.644;2023-02-01T01:13:37;4.30;99.90
16076;DHT22;8142;48.242;11.644;2023-02-01T01:16:05;4.20;99.90
16076;DHT22;8142;48.242;11.644;2023-02-01T01:18:32;4.20;99.90
16076;DHT22;8142;48.242;11.644;2023-02-01T01:20:58;4.20;99.90
16076;DHT22;8142;48.242;11.644;2023-02-01T01:23:25;4.20;99.90
16076;DHT22;8142;48.242;11.644;2023-02-01T01:25:51;4.10;99.90
16076;DHT22;8142;48.242;11.644;2023-02-01T01:28:17;4.10;99.90
16076;DHT22;8142;48.242;11.644;2023-02-01T01:30:43;4.10;99.90
16076;DHT22;8142;48.242;11.644;2023-02-01T01:33:09;4.00;99.90
16076;DHT22;8142;48.242;11.644;2023-02-01T01:35:35;4.00;99.90
16076;DHT22;8142;48.242;11.644;2023-02-01T01:38:01;4.00;99.90
16076;DHT22;8142;48.242;11.644;2023-02-01T01:40:29;4.00;99.90
16076;DHT22;8142;48.242;11.644;2023-02-01T01:42:55;4.00;99.90
16076;DHT22;8142;48.242;11.644;2023-02-01T01:47:53;4.00;99.90
16076;DHT22;8142;48.242;11.644;2023-02-01T01:50:25;4.10;99.90
16076;DHT22;8142;48.242;11.644;2023-02-01T01:52:55;4.00;99.90
16076;DHT22;8142;48.242;11.644;2023-02-01T01:55:22;4.00;99.90
16076;DHT22;8142;48.242;11.644;2023-02-01T01:57:57;4.00;99.90
16076;DHT22;8142;48.242;11.644;2023-02-01T02:00:24;4.00;99.90
16076;DHT22;8142;48.242;11.644;2023-02-01T02:02:57;4.00;99.90
16076;DHT22;8142;48.242;11.644;2023-02-01T02:05:24;3.90;99.90
16076;DHT22;8142;48.242;11.644;2023-02-01T02:07:53;4.00;99.90
16076;DHT22;8142;48.242;11.644;2023-02-01T02:10:22;3.90;99.90
16076;DHT22;8142;48.242;11.644;2023-02-01T02:13:08;3.90;99.90
16076;DHT22;8142;48.242;11.644;2023-02-01T02:15:38;3.90;99.90
16076;DHT22;8142;48.242;11.644;2023-02-01T02:18:27;3.90;99.90
16076;DHT22;8142;48.242;11.644;2023-02-01T02:21:15;3.80;99.90
16076;DHT22;8142;48.242;11.644;2023-02-01T02:35:05;3.70;99.90
16076;DHT22;8142;48.242;11.644;2023-02-01T02:37:41;3.70;99.90
16076;DHT22;8142;48.242;11.644;2023-02-01T02:45:55;3.80;99.90
16076;DHT22;8142;48.242;11.644;2023-02-01T02:49:05;3.80;99.90
16076;DHT22;8142;48.242;11.644;2023-02-01T02:51:41;3.80;99.90
16076;DHT22;8142;48.242;11.644;2023-02-01T02:54:33;3.80;99.90
16076;DHT22;8142;48.242;11.644;2023-02-01T02:57:35;3.80;99.90
16076;DHT22;8142;48.242;11.644;2023-02-01T03:00:24;3.80;99.90
16076;DHT22;8142;48.242;11.644;2023-02-01T03:03:09;3.80;99.90
16076;DHT22;8142;48.242;11.644;2023-02-01T03:05:53;3.80;99.90
16076;DHT22;8142;48.242;11.644;2023-02-01T03:08:24;3.80;99.90
16076;DHT22;8142;48.242;11.644;2023-02-01T03:13:45;3.90;99.90
16076;DHT22;8142;48.242;11.644;2023-02-01T03:19:06;3.90;99.90
16076;DHT22;8142;48.242;11.644;2023-02-01T03:24:16;3.90;99.90
16076;DHT22;8142;48.242;11.644;2023-02-01T03:26:49;3.90;99.90
16076;DHT22;8142;48.242;11.644;2023-02-01T03:29:21;3.90;99.90
16076;DHT22;8142;48.242;11.644;2023-02-01T03:31:47;3.90;99.90
16076;DHT22;8142;48.242;11.644;2023-02-01T03:34:13;3.90;99.90
16076;DHT22;8142;48.242;11.644;2023-02-01T03:36:58;3.90;99.90
16076;DHT22;8142;48.242;11.644;2023-02-01T03:39:51;3.90;99.90
16076;DHT22;8142;48.242;11.644;2023-02-01T03:42:28;3.90;99.90
16076;DHT22;8142;48.242;11.644;2023-02-01T03:45:07;3.90;99.90
16076;DHT22;8142;48.242;11.644;2023-02-01T03:47:39;3.90;99.90
16076;DHT22;8142;48.242;11.644;2023-02-01T03:50:26;3.90;99.90
16076;DHT22;8142;48.242;11.644;2023-02-01T03:53:07;3.90;99.90
16076;DHT22;8142;48.242;11.644;2023-02-01T03:55:35;4.00;99.90
16076;DHT22;8142;48.242;11.644;2023-02-01T03:58:18;4.00;99.90
16076;DHT22;8142;48.242;11.644;2023-02-01T04:00:56;3.90;99.90
16076;DHT22;8142;48.242;11.644;2023-02-01T04:03:23;4.00;99.90
16076;DHT22;8142;48.242;11.644;2023-02-01T04:05:49;3.90;99.90
16076;DHT22;8142;48.242;11.644;2023-02-01T04:08:16;3.90;99.90
16076;DHT22;8142;48.242;11.644;2023-02-01T04:10:42;3.90;99.90
16076;DHT22;8142;48.242;11.644;2023-02-01T04:13:07;3.80;99.90
16076;DHT22;8142;48.242;11.644;2023-02-01T04:15:33;3.80;99.90
16076;DHT22;8142;48.242;11.644;2023-02-01T04:18:00;3.70;99.90
16076;DHT22;8142;48.242;11.644;2023-02-01T04:20:27;3.60;99.90
16076;DHT22;8142;48.242;11.644;2023-02-01T04:22:53;3.60;99.90
16076;DHT22;8142;48.242;11.644;2023-02-01T04:25:19;3.50;99.90
16076;DHT22;8142;48.242;11.644;2023-02-01T04:27:46;3.50;99.90
16076;DHT22;8142;48.242;11.644;2023-02-01T04:30:12;3.40;99.90
16076;DHT22;8142;48.242;11.644;2023-02-01T04:32:39;3.40;99.90
16076;DHT22;8142;48.242;11.644;2023-02-01T04:35:05;3.40;99.90
16076;DHT22;8142;48.242;11.644;2023-02-01T04:37:31;3.40;99.90
16076;DHT22;8142;48.242;11.644;2023-02-01T04:39:57;3.30;99.90
16076;DHT22;8142;48.242;11.644;2023-02-01T04:42:22;3.30;99.90
16076;DHT22;8142;48.242;11.644;2023-02-01T04:44:48;3.30;99.90
16076;DHT22;8142;48.242;11.644;2023-02-01T04:47:14;3.30;99.90
16076;DHT22;8142;48.242;11.644;2023-02-01T04:49:41;3.30;99.90
16076;DHT22;8142;48.242;11.644;2023-02-01T04:52:07;3.30;99.90
16076;DHT22;8142;48.242;11.644;2023-02-01T04:54:33;3.30;99.90
16076;DHT22;8142;48.242;11.644;2023-02-01T04:56:59;3.30;99.90
16076;DHT22;8142;48.242;11.644;2023-02-01T04:59:25;3.30;99.90
16076;DHT22;8142;48.242;11.644;2023-02-01T05:01:51;3.30;99.90
16076;DHT22;8142;48.242;11.644;2023-02-01T05:04:17;3.30;99.90
16076;DHT22;8142;48.242;11.644;2023-02-01T05:06:44;3.30;99.90
16076;DHT22;8142;48.242;11.644;2023-02-01T05:09:10;3.30;99.90
16076;DHT22;8142;48.242;11.644;2023-02-01T05:11:36;3.30;99.90
16076;DHT22;8142;48.242;11.644;2023-02-01T05:14:21;3.30;99.90
16076;DHT22;8142;48.242;11.644;2023-02-01T05:16:47;3.30;99.90
16076;DHT22;8142;48.242;11.644;2023-02-01T05:19:12;3.30;99.90
16076;DHT22;8142;48.242;11.644;2023-02-01T05:21:38;3.40;99.90
16076;DHT22;8142;48.242;11.644;2023-02-01T05:24:04;3.40;99.90
16076;DHT22;8142;48.242;11.644;2023-02-01T05:26:39;3.30;99.90
16076;DHT22;8142;48.242;11.644;2023-02-01T05:29:07;3.40;99.90
16076;DHT22;8142;48.242;11.644;2023-02-01T05:31:33;3.30;99.90
16076;DHT22;8142;48.242;11.644;2023-02-01T05:33:59;3.30;99.90
16076;DHT22;8142;48.242;11.644;2023-02-01T05:36:25;3.30;99.90
16076;DHT22;8142;48.242;11.644;2023-02-01T05:38:51;3.40;99.90
16076;DHT22;8142;48.242;11.644;2023-02-01T05:41:17;3.40;99.90
16076;DHT22;8142;48.242;11.644;2023-02-01T05:43:43;3.40;99.90
16076;DHT22;8142;48.242;11.644;2023-02-01T05:46:09;3.40;99.90
16076;DHT22;8142;48.242;11.644;2023-02-01T05:48:42;3.40;99.90
16076;DHT22;8142;48.242;11.644;2023-02-01T05:51:08;3.40;99.90
16076;DHT22;8142;48.242;11.644;2023-02-01T05:53:35;3.40;99.90
16076;DHT22;8142;48.242;11.644;2023-02-01T05:56:00;3.40;99.90
16076;DHT22;8142;48.242;11.644;2023-02-01T05:58:27;3.40;99.90
16076;DHT22;8142;48.242;11.644;2023-02-01T06:00:53;3.40;99.90
16076;DHT22;8142;48.242;11.644;2023-02-01T06:03:19;3.40;99.90
16076;DHT22;8142;48.242;11.644;2023-02-01T06:05:46;3.40;99.90
16076;DHT22;8142;48.242;11.644;2023-02-01T06:08:13;3.40;99.90
16076;DHT22;8142;48.242;11.644;2023-02-01T06:10:39;3.50;99.90
16076;DHT22;8142;48.242;11.644;2023-02-01T06:13:05;3.50;99.90
16076;DHT22;8142;48.242;11.644;2023-02-01T06:15:31;3.50;99.90
16076;DHT22;8142;48.242;11.644;2023-02-01T06:17:57;3.50;99.90
16076;DHT22;8142;48.242;11.644;2023-02-01T06:20:23;3.60;99.90
16076;DHT22;8142;48.242;11.644;2023-02-01T06:22:49;3.60;99.90
16076;DHT22;8142;48.242;11.644;2023-02-01T06:25:15;3.60;99.90
16076;DHT22;8142;48.242;11.644;2023-02-01T06:27:42;3.70;99.90
16076;DHT22;8142;48.242;11.644;2023-02-01T06:30:10;3.70;99.90
16076;DHT22;8142;48.242;11.644;2023-02-01T06:32:39;3.80;99.90
16076;DHT22;8142;48.242;11.644;2023-02-01T06:35:10;3.80;99.90
16076;DHT22;8142;48.242;11.644;2023-02-01T06:37:42;3.90;99.90
16076;DHT22;8142;48.242;11.644;2023-02-01T06:40:08;4.00;99.90
16076;DHT22;8142;48.242;11.644;2023-02-01T06:42:34;4.00;99.90
16076;DHT22;8142;48.242;11.644;2023-02-01T06:45:00;4.00;99.90
16076;DHT22;8142;48.242;11.644;2023-02-01T06:47:26;4.00;99.90
16076;DHT22;8142;48.242;11.644;2023-02-01T06:49:52;4.10;99.90
16076;DHT22;8142;48.242;11.644;2023-02-01T06:52:17;4.10;99.90
16076;DHT22;8142;48.242;11.644;2023-02-01T06:54:43;4.10;99.90
16076;DHT22;8142;48.242;11.644;2023-02-01T06:57:09;4.20;99.90
16076;DHT22;8142;48.242;11.644;2023-02-01T06:59:35;4.20;99.90
16076;DHT22;8142;48.242;11.644;2023-02-01T07:02:01;4.20;99.90
16076;DHT22;8142;48.242;11.644;2023-02-01T07:04:26;4.20;99.90
16076;DHT22;8142;48.242;11.644;2023-02-01T07:06:52;4.20;99.90
16076;DHT22;8142;48.242;11.644;2023-02-01T07:09:18;4.20;99.90
16076;DHT22;8142;48.242;11.644;2023-02-01T07:11:44;4.20;99.90
16076;DHT22;8142;48.242;11.644;2023-02-01T07:14:10;4.20;99.90
16076;DHT22;8142;48.242;11.644;2023-02-01T07:16:37;4.30;99.90
16076;DHT22;8142;48.242;11.644;2023-02-01T07:19:03;4.30;99.90
16076;DHT22;8142;48.242;11.644;2023-02-01T07:21:29;4.30;99.90
16076;DHT22;8142;48.242;11.644;2023-02-01T07:23:55;4.30;99.90
16076;DHT22;8142;48.242;11.644;2023-02-01T07:26:21;4.40;99.90
16076;DHT22;8142;48.242;11.644;2023-02-01T07:28:47;4.30;99.90
16076;DHT22;8142;48.242;11.644;2023-02-01T07:31:15;4.40;99.90
16076;DHT22;8142;48.242;11.644;2023-02-01T07:33:43;4.30;99.90
16076;DHT22;8142;48.242;11.644;2023-02-01T07:36:15;4.40;99.90
16076;DHT22;8142;48.242;11.644;2023-02-01T07:38:41;4.40;99.90
16076;DHT22;8142;48.242;11.644;2023-02-01T07:41:07;4.50;99.90
16076;DHT22;8142;48.242;11.644;2023-02-01T07:43:34;4.50;99.90
16076;DHT22;8142;48.242;11.644;2023-02-01T07:46:00;4.50;99.90
16076;DHT22;8142;48.242;11.644;2023-02-01T07:48:27;4.60;99.90
16076;DHT22;8142;48.242;11.644;2023-02-01T07:51:04;4.50;99.90
16076;DHT22;8142;48.242;11.644;2023-02-01T07:53:31;4.60;99.90
16076;DHT22;8142;48.242;11.644;2023-02-01T07:55:58;4.50;99.90
16076;DHT22;8142;48.242;11.644;2023-02-01T07:58:25;4.50;99.90
16076;DHT22;8142;48.242;11.644;2023-02-01T08:00:51;4.40;99.90
16076;DHT22;8142;48.242;11.644;2023-02-01T08:03:36;4.40;99.90
16076;DHT22;8142;48.242;11.644;2023-02-01T08:06:03;4.40;99.90
16076;DHT22;8142;48.242;11.644;2023-02-01T08:08:29;4.40;99.90
16076;DHT22;8142;48.242;11.644;2023-02-01T08:11:02;4.40;99.90
16076;DHT22;8142;48.242;11.644;2023-02-01T08:13:28;4.40;99.90
16076;DHT22;8142;48.242;11.644;2023-02-01T08:15:59;4.50;99.90
16076;DHT22;8142;48.242;11.644;2023-02-01T08:18:25;4.50;99.90
16076;DHT22;8142;48.242;11.644;2023-02-01T08:20:51;4.50;99.90
16076;DHT22;8142;48.242;11.644;2023-02-01T08:23:16;4.60;99.90
16076;DHT22;8142;48.242;11.644;2023-02-01T08:25:43;4.70;99.90
16076;DHT22;8142;48.242;11.644;2023-02-01T08:28:09;4.70;99.90
16076;DHT22;8142;48.242;11.644;2023-02-01T08:30:38;4.80;99.90
16076;DHT22;8142;48.242;11.644;2023-02-01T08:33:05;4.80;99.90
16076;DHT22;8142;48.242;11.644;2023-02-01T08:35:34;4.80;99.90
16076;DHT22;8142;48.242;11.644;2023-02-01T08:38:00;4.80;99.90
16076;DHT22;8142;48.242;11.644;2023-02-01T08:40:26;4.80;99.90
16076;DHT22;8142;48.242;11.644;2023-02-01T08:42:51;4.90;99.90
16076;DHT22;8142;48.242;11.644;2023-02-01T08:45:19;4.90;99.90
16076;DHT22;8142;48.242;11.644;2023-02-01T08:47:50;5.00;99.90
16076;DHT22;8142;48.242;11.644;2023-02-01T08:50:16;5.00;99.90
16076;DHT22;8142;48.242;11.644;2023-02-01T08:52:43;5.00;99.90
16076;DHT22;8142;48.242;11.644;2023-02-01T08:55:09;5.00;99.90
16076;DHT22;8142;48.242;11.644;2023-02-01T08:57:35;5.10;99.90
16076;DHT22;8142;48.242;11.644;2023-02-01T09:00:02;5.10;99.90
16076;DHT22;8142;48.242;11.644;2023-02-01T09:02:28;5.10;99.90
16076;DHT22;8142;48.242;11.644;2023-02-01T09:04:55;5.00;99.90
16076;DHT22;8142;48.242;11.644;2023-02-01T09:07:22;5.10;99.90
16076;DHT22;8142;48.242;11.644;2023-02-01T09:09:48;5.10;99.90
16076;DHT22;8142;48.242;11.644;2023-02-01T09:12:14;5.10;99.90
16076;DHT22;8142;48.242;11.644;2023-02-01T09:14:40;5.10;99.90
16076;DHT22;8142;48.242;11.644;2023-02-01T09:17:05;5.10;99.90
16076;DHT22;8142;48.242;11.644;2023-02-01T09:19:32;5.20;99.90
16076;DHT22;8142;48.242;11.644;2023-02-01T09:21:58;5.20;99.90
16076;DHT22;8142;48.242;11.644;2023-02-01T09:24:24;5.20;99.90
16076;DHT22;8142;48.242;11.644;2023-02-01T09:26:49;5.20;99.90
16076;DHT22;8142;48.242;11.644;2023-02-01T09:29:15;5.20;99.90
16076;DHT22;8142;48.242;11.644;2023-02-01T09:31:41;5.30;99.90
16076;DHT22;8142;48.242;11.644;2023-02-01T09:34:07;5.30;99.90
16076;DHT22;8142;48.242;11.644;2023-02-01T09:36:34;5.30;99.90
16076;DHT22;8142;48.242;11.644;2023-02-01T09:39:00;5.30;99.90
16076;DHT22;8142;48.242;11.644;2023-02-01T09:44:14;5.40;99.90
16076;DHT22;8142;48.242;11.644;2023-02-01T09:46:42;5.50;99.90
16076;DHT22;8142;48.242;11.644;2023-02-01T09:49:22;5.50;99.90
16076;DHT22;8142;48.242;11.644;2023-02-01T09:51:53;5.50;99.90
16076;DHT22;8142;48.242;11.644;2023-02-01T09:54:26;5.50;99.90
16076;DHT22;8142;48.242;11.644;2023-02-01T09:57:06;5.60;99.90
16076;DHT22;8142;48.242;11.644;2023-02-01T09:59:46;5.60;99.90
16076;DHT22;8142;48.242;11.644;2023-02-01T10:02:22;5.60;99.90
16076;DHT22;8142;48.242;11.644;2023-02-01T10:04:49;5.60;99.90
16076;DHT22;8142;48.242;11.644;2023-02-01T10:10:23;5.60;99.90
16076;DHT22;8142;48.242;11.644;2023-02-01T10:18:56;5.60;99.90
16076;DHT22;8142;48.242;11.644;2023-02-01T10:29:45;5.70;99.90
16076;DHT22;8142;48.242;11.644;2023-02-01T10:32:24;5.70;99.90
16076;DHT22;8142;48.242;11.644;2023-02-01T10:34:59;5.60;99.90
16076;DHT22;8142;48.242;11.644;2023-02-01T10:37:32;5.60;99.90
16076;DHT22;8142;48.242;11.644;2023-02-01T10:40:24;5.60;99.90
16076;DHT22;8142;48.242;11.644;2023-02-01T10:42:54;5.50;99.90
16076;DHT22;8142;48.242;11.644;2023-02-01T10:45:26;5.50;99.90
16076;DHT22;8142;48.242;11.644;2023-02-01T10:47:55;5.50;99.90
16076;DHT22;8142;48.242;11.644;2023-02-01T10:50:42;5.50;99.90
16076;DHT22;8142;48.242;11.644;2023-02-01T10:53:17;5.40;99.90
16076;DHT22;8142;48.242;11.644;2023-02-01T10:58:17;5.50;99.90
16076;DHT22;8142;48.242;11.644;2023-02-01T11:00:52;5.60;99.90
16076;DHT22;8142;48.242;11.644;2023-02-01T11:06:29;5.50;99.90
16076;DHT22;8142;48.242;11.644;2023-02-01T11:08:58;5.40;99.90
16076;DHT22;8142;48.242;11.644;2023-02-01T11:11:25;5.40;99.90
16076;DHT22;8142;48.242;11.644;2023-02-01T11:13:53;5.40;99.90
16076;DHT22;8142;48.242;11.644;2023-02-01T11:16:20;5.20;99.90
16076;DHT22;8142;48.242;11.644;2023-02-01T11:18:53;5.20;99.90
16076;DHT22;8142;48.242;11.644;2023-02-01T11:21:20;5.10;99.90
16076;DHT22;8142;48.242;11.644;2023-02-01T11:23:46;5.10;99.90
16076;DHT22;8142;48.242;11.644;2023-02-01T11:26:20;5.00;99.90
16076;DHT22;8142;48.242;11.644;2023-02-01T11:29:01;5.00;99.90
16076;DHT22;8142;48.242;11.644;2023-02-01T11:31:28;5.00;99.90
16076;DHT22;8142;48.242;11.644;2023-02-01T11:34:16;5.10;99.90
16076;DHT22;8142;48.242;11.644;2023-02-01T11:36:45;5.10;99.90
16076;DHT22;8142;48.242;11.644;2023-02-01T11:46:54;5.20;99.90
16076;DHT22;8142;48.242;11.644;2023-02-01T11:49:27;5.20;99.90
16076;DHT22;8142;48.242;11.644;2023-02-01T11:52:10;5.30;99.90
16076;DHT22;8142;48.242;11.644;2023-02-01T11:55:17;5.30;99.90
16076;DHT22;8142;48.242;11.644;2023-02-01T12:03:49;5.30;99.90
16076;DHT22;8142;48.242;11.644;2023-02-01T12:06:24;5.30;99.90
16076;DHT22;8142;48.242;11.644;2023-02-01T12:17:32;5.40;99.90
16076;DHT22;8142;48.242;11.644;2023-02-01T12:20:21;5.30;99.90
16076;DHT22;8142;48.242;11.644;2023-02-01T12:33:56;5.30;99.90
16076;DHT22;8142;48.242;11.644;2023-02-01T12:39:08;5.30;99.90
16076;DHT22;8142;48.242;11.644;2023-02-01T12:52:37;5.30;99.90
16076;DHT22;8142;48.242;11.644;2023-02-01T12:57:49;5.30;99.90
16076;DHT22;8142;48.242;11.644;2023-02-01T13:03:26;5.30;99.90
16076;DHT22;8142;48.242;11.644;2023-02-01T13:06:05;5.30;99.90
16076;DHT22;8142;48.242;11.644;2023-02-01T13:11:42;5.30;99.90
16076;DHT22;8142;48.242;11.644;2023-02-01T13:14:52;5.30;99.90
16076;DHT22;8142;48.242;11.644;2023-02-01T13:17:26;5.30;99.90
16076;DHT22;8142;48.242;11.644;2023-02-01T13:22:30;5.40;99.90
16076;DHT22;8142;48.242;11.644;2023-02-01T13:25:00;5.30;99.90
16076;DHT22;8142;48.242;11.644;2023-02-01T13:27:29;5.30;99.90
16076;DHT22;8142;48.242;11.644;2023-02-01T13:30:01;5.40;99.90
16076;DHT22;8142;48.242;11.644;2023-02-01T13:38:22;5.50;99.90
16076;DHT22;8142;48.242;11.644;2023-02-01T13:43:33;5.50;99.90
16076;DHT22;8142;48.242;11.644;2023-02-01T13:46:05;5.50;99.90
16076;DHT22;8142;48.242;11.644;2023-02-01T13:48:36;5.50;99.90
16076;DHT22;8142;48.242;11.644;2023-02-01T13:51:04;5.50;99.90
16076;DHT22;8142;48.242;11.644;2023-02-01T13:53:32;5.50;99.90
16076;DHT22;8142;48.242;11.644;2023-02-01T13:56:00;5.50;99.90
16076;DHT22;8142;48.242;11.644;2023-02-01T13:58:35;5.50;99.90
16076;DHT22;8142;48.242;11.644;2023-02-01T14:03:59;5.50;99.90
16076;DHT22;8142;48.242;11.644;2023-02-01T14:19:29;5.40;99.90
16076;DHT22;8142;48.242;11.644;2023-02-01T14:24:33;5.30;99.90
16076;DHT22;8142;48.242;11.644;2023-02-01T14:27:06;5.30;99.90
16076;DHT22;8142;48.242;11.644;2023-02-01T14:29:43;5.30;99.90
16076;DHT22;8142;48.242;11.644;2023-02-01T14:32:20;5.30;99.90
16076;DHT22;8142;48.242;11.644;2023-02-01T14:50:46;5.10;99.90
16076;DHT22;8142;48.242;11.644;2023-02-01T14:56:04;5.10;99.90
16076;DHT22;8142;48.242;11.644;2023-02-01T15:01:18;5.10;99.90
16076;DHT22;8142;48.242;11.644;2023-02-01T15:03:58;5.10;99.90
16076;DHT22;8142;48.242;11.644;2023-02-01T15:06:29;5.10;99.90
16076;DHT22;8142;48.242;11.644;2023-02-01T15:09:16;5.10;99.90
16076;DHT22;8142;48.242;11.644;2023-02-01T15:14:32;5.10;99.90
16076;DHT22;8142;48.242;11.644;2023-02-01T15:16:59;5.10;99.90
16076;DHT22;8142;48.242;11.644;2023-02-01T15:19:27;5.10;99.90
16076;DHT22;8142;48.242;11.644;2023-02-01T15:21:55;5.10;99.90
16076;DHT22;8142;48.242;11.644;2023-02-01T15:24:26;5.10;99.90
16076;DHT22;8142;48.242;11.644;2023-02-01T15:26:53;5.10;99.90
16076;DHT22;8142;48.242;11.644;2023-02-01T15:29:21;5.10;99.90
16076;DHT22;8142;48.242;11.644;2023-02-01T15:31:51;5.10;99.90
16076;DHT22;8142;48.242;11.644;2023-02-01T15:34:18;5.10;99.90
16076;DHT22;8142;48.242;11.644;2023-02-01T15:36:46;5.10;99.90
16076;DHT22;8142;48.242;11.644;2023-02-01T15:39:19;5.10;99.90
16076;DHT22;8142;48.242;11.644;2023-02-01T15:41:56;5.10;99.90
16076;DHT22;8142;48.242;11.644;2023-02-01T15:47:27;5.10;99.90
16076;DHT22;8142;48.242;11.644;2023-02-01T15:49:57;5.20;99.90
16076;DHT22;8142;48.242;11.644;2023-02-01T15:52:35;5.20;99.90
16076;DHT22;8142;48.242;11.644;2023-02-01T15:55:05;5.20;99.90
16076;DHT22;8142;48.242;11.644;2023-02-01T15:57:35;5.20;99.90
16076;DHT22;8142;48.242;11.644;2023-02-01T16:00:28;5.20;99.90
16076;DHT22;8142;48.242;11.644;2023-02-01T16:03:04;5.20;99.90
16076;DHT22;8142;48.242;11.644;2023-02-01T16:05:34;5.20;99.90
16076;DHT22;8142;48.242;11.644;2023-02-01T16:10:31;5.10;99.90
16076;DHT22;8142;48.242;11.644;2023-02-01T16:13:03;5.00;99.90
16076;DHT22;8142;48.242;11.644;2023-02-01T16:15:29;4.90;99.90
16076;DHT22;8142;48.242;11.644;2023-02-01T16:17:58;4.80;99.90
16076;DHT22;8142;48.242;11.644;2023-02-01T16:20:23;4.70;99.90
16076;DHT22;8142;48.242;11.644;2023-02-01T16:22:49;4.70;99.90
16076;DHT22;8142;48.242;11.644;2023-02-01T16:25:15;4.60;99.90
16076;DHT22;8142;48.242;11.644;2023-02-01T16:27:41;4.60;99.90
16076;DHT22;8142;48.242;11.644;2023-02-01T16:30:07;4.50;99.90
16076;DHT22;8142;48.242;11.644;2023-02-01T16:32:36;4.50;99.90
16076;DHT22;8142;48.242;11.644;2023-02-01T16:35:21;4.40;99.90
16076;DHT22;8142;48.242;11.644;2023-02-01T16:37:48;4.40;99.90
16076;DHT22;8142;48.242;11.644;2023-02-01T16:40:15;4.40;99.90
16076;DHT22;8142;48.242;11.644;2023-02-01T16:42:41;4.30;99.90
16076;DHT22;8142;48.242;11.644;2023-02-01T16:45:08;4.30;99.90
16076;DHT22;8142;48.242;11.644;2023-02-01T16:47:36;4.30;99.90
16076;DHT22;8142;48.242;11.644;2023-02-01T16:50:03;4.30;99.90
16076;DHT22;8142;48.242;11.644;2023-02-01T16:52:29;4.30;99.90
16076;DHT22;8142;48.242;11.644;2023-02-01T16:54:55;4.30;99.90
16076;DHT22;8142;48.242;11.644;2023-02-01T16:57:21;4.20;99.90
16076;DHT22;8142;48.242;11.644;2023-02-01T16:59:49;4.20;99.90
16076;DHT22;8142;48.242;11.644;2023-02-01T17:02:18;4.20;99.90
16076;DHT22;8142;48.242;11.644;2023-02-01T17:04:48;4.30;99.90
16076;DHT22;8142;48.242;11.644;2023-02-01T17:07:18;4.30;99.90
16076;DHT22;8142;48.242;11.644;2023-02-01T17:09:45;4.30;99.90
16076;DHT22;8142;48.242;11.644;2023-02-01T17:12:23;4.30;99.90
16076;DHT22;8142;48.242;11.644;2023-02-01T17:14:50;4.30;99.90
16076;DHT22;8142;48.242;11.644;2023-02-01T17:17:16;4.30;99.90
16076;DHT22;8142;48.242;11.644;2023-02-01T17:19:44;4.30;99.90
16076;DHT22;8142;48.242;11.644;2023-02-01T17:22:12;4.30;99.90
16076;DHT22;8142;48.242;11.644;2023-02-01T17:24:39;4.30;99.90
16076;DHT22;8142;48.242;11.644;2023-02-01T17:27:05;4.30;99.90
16076;DHT22;8142;48.242;11.644;2023-02-01T17:29:32;4.30;99.90
16076;DHT22;8142;48.242;11.644;2023-02-01T17:31:58;4.30;99.90
16076;DHT22;8142;48.242;11.644;2023-02-01T17:34:25;4.30;99.90
16076;DHT22;8142;48.242;11.644;2023-02-01T17:36:50;4.40;99.90
16076;DHT22;8142;48.242;11.644;2023-02-01T17:39:17;4.30;99.90
16076;DHT22;8142;48.242;11.644;2023-02-01T17:42:03;4.40;99.90
16076;DHT22;8142;48.242;11.644;2023-02-01T17:44:29;4.40;99.90
16076;DHT22;8142;48.242;11.644;2023-02-01T17:46:55;4.40;99.90
16076;DHT22;8142;48.242;11.644;2023-02-01T17:49:23;4.40;99.90
16076;DHT22;8142;48.242;11.644;2023-02-01T17:51:49;4.40;99.90
16076;DHT22;8142;48.242;11.644;2023-02-01T17:54:17;4.40;99.90
16076;DHT22;8142;48.242;11.644;2023-02-01T17:56:45;4.40;99.90
16076;DHT22;8142;48.242;11.644;2023-02-01T17:59:13;4.50;99.90
16076;DHT22;8142;48.242;11.644;2023-02-01T18:01:40;4.50;99.90
16076;DHT22;8142;48.242;11.644;2023-02-01T18:04:11;4.50;99.90
16076;DHT22;8142;48.242;11.644;2023-02-01T18:06:37;4.50;99.90
16076;DHT22;8142;48.242;11.644;2023-02-01T18:09:03;4.50;99.90
16076;DHT22;8142;48.242;11.644;2023-02-01T18:11:29;4.60;99.90
16076;DHT22;8142;48.242;11.644;2023-02-01T18:13:58;4.50;99.90
16076;DHT22;8142;48.242;11.644;2023-02-01T18:16:25;4.60;99.90
16076;DHT22;8142;48.242;11.644;2023-02-01T18:18:51;4.60;99.90
16076;DHT22;8142;48.242;11.644;2023-02-01T18:21:18;4.60;99.90
16076;DHT22;8142;48.242;11.644;2023-02-01T18:23:46;4.70;99.90
16076;DHT22;8142;48.242;11.644;2023-02-01T18:26:16;4.80;99.90
16076;DHT22;8142;48.242;11.644;2023-02-01T18:28:43;4.70;99.90
16076;DHT22;8142;48.242;11.644;2023-02-01T18:31:26;4.70;99.90
16076;DHT22;8142;48.242;11.644;2023-02-01T18:33:55;4.80;99.90
16076;DHT22;8142;48.242;11.644;2023-02-01T18:36:22;4.80;99.90
16076;DHT22;8142;48.242;11.644;2023-02-01T18:38:48;4.80;99.90
16076;DHT22;8142;48.242;11.644;2023-02-01T18:41:16;4.80;99.90
16076;DHT22;8142;48.242;11.644;2023-02-01T18:43:42;4.80;99.90
16076;DHT22;8142;48.242;11.644;2023-02-01T18:46:12;4.80;99.90
16076;DHT22;8142;48.242;11.644;2023-02-01T18:48:39;4.80;99.90
16076;DHT22;8142;48.242;11.644;2023-02-01T18:51:05;4.80;99.90
16076;DHT22;8142;48.242;11.644;2023-02-01T18:53:33;4.90;99.90